Time;durP1;ratioP1;P1;durP2;ratioP2;P2;SDS_P1;SDS_P2;PMS_P1;PMS_P2;Temp;Humidity;BMP_temperature;BMP_pressure;BME280_temperature;BME280_humidity;BME280_pressure;Samples;Min_cycle;Max_cycle;Signal;HPM_P1;HPM_P2
2023/08/22 00:00:14;;;;;;;9.27;4.15;;;;;;;;;;5026114;28;20571;-67
2023/08/22 00:02:40;;;;;;;9.00;3.50;;;;;;;;;;5027464;28;20079;-67
2023/08/22 00:05:06;;;;;;;7.60;3.75;;;;;;;;;;5026145;28;20072;-67
2023/08/22 00:07:31;;;;;;;8.55;3.55;;;;;;;;;;5026845;28;20037;-67
2023/08/22 00:09:57;;;;;;;6.93;3.90;;;;;;;;;;5008248;28;20613;-67
2023/08/22 00:12:22;;;;;;;9.93;3.85;;;;;;;;;;5026543;28;20558;-67
2023/08/22 00:14:48;;;;;;;7.72;3.88;;;;;;;;;;5026249;28;20159;-67
2023/08/22 00:17:13;;;;;;;10.73;3.70;;;;;;;;;;5026805;28;20049;-68
2023/08/22 00:19:40;;;;;;;11.13;3.65;;;;;;;;;;5026660;28;20407;-67
2023/08/22 00:22:05;;;;;;;8.90;3.70;;;;;;;;;;5010746;28;20463;-67
2023/08/22 00:24:32;;;;;;;7.38;3.55;;;;;;;;;;5031648;28;20041;-67
2023/08/22 00:26:58;;;;;;;6.57;3.45;;;;;;;;;;5011538;28;20032;-67
2023/08/22 00:29:23;;;;;;;9.57;3.25;;;;;;;;;;5026714;28;20022;-67
2023/08/22 00:31:49;;;;;;;8.68;4.70;;;;;;;;;;5012455;28;20565;-67
2023/08/22 00:34:14;;;;;;;6.07;3.30;;;;;;;;;;5018505;28;20077;-67
2023/08/22 00:36:40;;;;;;;7.50;3.80;;;;;;;;;;5019132;28;20029;-67
2023/08/22 00:39:05;;;;;;;7.35;4.00;;;;;;;;;;5013797;28;20026;-68
2023/08/22 00:41:30;;;;;;;8.35;3.80;;;;;;;;;;4991111;28;20048;-67
2023/08/22 00:43:56;;;;;;;6.40;3.80;;;;;;;;;;5011072;28;20042;-67
2023/08/22 00:46:23;;;;;;;9.70;4.75;;;;;;;;;;4995593;28;20034;-67
2023/08/22 00:48:48;;;;;;;9.02;4.43;;;;;;;;;;5006795;28;20072;-67
2023/08/22 00:51:16;;;;;;;7.03;4.10;;;;;;;;;;5016185;28;20115;-67
2023/08/22 00:53:42;;;;;;;9.90;4.35;;;;;;;;;;5012812;28;20743;-67
2023/08/22 00:56:08;;;;;;;10.85;4.60;;;;;;;;;;5014421;28;20038;-67
2023/08/22 00:58:34;;;;;;;8.23;4.05;;;;;;;;;;5018886;28;20627;-67
2023/08/22 01:00:59;;;;;;;8.23;3.95;;;;;;;;;;5017051;28;20029;-67
2023/08/22 01:03:25;;;;;;;10.20;4.43;;;;;;;;;;5011335;28;20033;-67
2023/08/22 01:05:59;;;;;;;8.75;3.88;;;;;;;;;;5013407;28;20022;-67
2023/08/22 01:08:32;;;;;;;9.05;4.03;;;;;;;;;;5018478;28;20025;-67
2023/08/22 01:11:29;;;;;;;10.02;4.47;;;;;;;;;;5018564;28;20600;-67
2023/08/22 01:13:56;;;;;;;8.13;3.97;;;;;;;;;;5017716;28;20033;-67
2023/08/22 01:16:22;;;;;;;9.73;4.65;;;;;;;;;;5011198;28;20576;-67
2023/08/22 01:18:48;;;;;;;12.15;5.00;;;;;;;;;;5011883;28;20026;-67
2023/08/22 01:21:19;;;;;;;10.30;5.15;;;;;;;;;;5017628;28;20081;-67
2023/08/22 01:23:44;;;;;;;12.18;4.32;;;;;;;;;;5018851;28;20120;-67
2023/08/22 01:26:10;;;;;;;8.35;4.53;;;;;;;;;;5012349;28;20109;-67
2023/08/22 01:28:45;;;;;;;8.20;4.40;;;;;;;;;;5011818;28;20411;-67
2023/08/22 01:31:18;;;;;;;9.90;5.25;;;;;;;;;;5013950;28;20405;-67
2023/08/22 01:33:58;;;;;;;14.48;5.10;;;;;;;;;;5018329;28;20050;-67
2023/08/22 01:36:25;;;;;;;8.23;4.78;;;;;;;;;;5017470;28;20040;-67
2023/08/22 01:38:52;;;;;;;11.18;4.85;;;;;;;;;;5011845;28;20021;-67
2023/08/22 01:41:19;;;;;;;11.32;5.18;;;;;;;;;;5007922;28;20030;-67
2023/08/22 01:43:44;;;;;;;13.30;5.30;;;;;;;;;;4986141;28;20039;-67
2023/08/22 01:46:09;;;;;;;9.40;4.97;;;;;;;;;;4998278;28;20045;-67
2023/08/22 01:48:35;;;;;;;11.68;5.80;;;;;;;;;;5019701;28;20033;-67
2023/08/22 01:51:01;;;;;;;13.57;5.57;;;;;;;;;;5018406;28;20022;-67
2023/08/22 01:53:26;;;;;;;13.98;6.25;;;;;;;;;;5017908;28;20048;-67
2023/08/22 01:55:52;;;;;;;9.15;4.97;;;;;;;;;;5016696;28;20037;-67
2023/08/22 01:58:17;;;;;;;10.35;4.95;;;;;;;;;;5017922;28;20507;-67
2023/08/22 02:00:43;;;;;;;12.68;5.43;;;;;;;;;;5013995;28;20064;-67
2023/08/22 02:03:08;;;;;;;10.45;5.28;;;;;;;;;;5011576;28;20064;-67
2023/08/22 02:05:34;;;;;;;11.18;5.35;;;;;;;;;;5015809;28;20115;-67
2023/08/22 02:08:04;;;;;;;14.52;5.25;;;;;;;;;;5017814;28;20034;-67
2023/08/22 02:10:29;;;;;;;13.35;5.70;;;;;;;;;;5015601;28;20172;-67
2023/08/22 02:12:54;;;;;;;12.13;6.50;;;;;;;;;;5011647;28;20120;-67
2023/08/22 02:15:20;;;;;;;10.02;5.93;;;;;;;;;;5014207;28;20030;-67
2023/08/22 02:17:46;;;;;;;10.85;6.60;;;;;;;;;;5017826;28;20091;-67
2023/08/22 02:20:12;;;;;;;13.82;7.07;;;;;;;;;;5016523;28;20387;-67
2023/08/22 02:22:39;;;;;;;14.88;6.60;;;;;;;;;;5011073;28;20042;-67
2023/08/22 02:25:05;;;;;;;14.15;6.78;;;;;;;;;;5012863;28;20034;-67
2023/08/22 02:27:30;;;;;;;13.77;6.60;;;;;;;;;;5011668;28;20088;-67
2023/08/22 02:29:56;;;;;;;13.15;6.20;;;;;;;;;;4998633;28;20054;-67
2023/08/22 02:32:21;;;;;;;14.43;6.70;;;;;;;;;;5010818;28;20037;-67
2023/08/22 02:34:46;;;;;;;13.98;6.63;;;;;;;;;;5012299;28;20038;-67
2023/08/22 02:37:12;;;;;;;16.02;7.00;;;;;;;;;;5017659;28;20415;-67
2023/08/22 02:39:37;;;;;;;15.68;6.70;;;;;;;;;;5015203;28;20074;-67
2023/08/22 02:42:03;;;;;;;11.85;6.53;;;;;;;;;;4985434;28;20030;-67
2023/08/22 02:44:28;;;;;;;14.50;6.40;;;;;;;;;;4989002;28;20026;-67
2023/08/22 02:46:53;;;;;;;13.50;6.55;;;;;;;;;;4988734;28;20108;-67
2023/08/22 02:49:19;;;;;;;13.98;6.72;;;;;;;;;;4997574;28;20042;-67
2023/08/22 02:51:44;;;;;;;15.50;6.53;;;;;;;;;;4991004;28;20519;-67
2023/08/22 02:54:09;;;;;;;13.52;6.15;;;;;;;;;;5003292;28;20025;-67
2023/08/22 02:56:35;;;;;;;14.00;5.75;;;;;;;;;;4995823;28;20030;-67
2023/08/22 02:59:01;;;;;;;18.23;6.57;;;;;;;;;;4959088;28;20042;-67
2023/08/22 03:01:26;;;;;;;13.90;6.15;;;;;;;;;;5014118;28;20136;-67
2023/08/22 03:03:54;;;;;;;12.75;5.93;;;;;;;;;;5013886;28;20040;-67
2023/08/22 03:06:19;;;;;;;11.32;5.57;;;;;;;;;;5015243;28;20034;-67
2023/08/22 03:08:45;;;;;;;12.00;5.93;;;;;;;;;;5021765;28;20080;-67
2023/08/22 03:11:10;;;;;;;10.05;5.97;;;;;;;;;;5020863;28;20033;-67
2023/08/22 03:13:36;;;;;;;21.65;6.85;;;;;;;;;;5014714;28;20056;-67
2023/08/22 03:16:02;;;;;;;17.05;6.63;;;;;;;;;;5011438;28;20037;-67
2023/08/22 03:18:27;;;;;;;12.45;6.20;;;;;;;;;;5024899;28;20474;-67
2023/08/22 03:20:56;;;;;;;13.68;6.35;;;;;;;;;;5000145;28;20029;-67
2023/08/22 03:23:23;;;;;;;11.23;6.18;;;;;;;;;;5015446;28;20029;-67
2023/08/22 03:26:02;;;;;;;14.98;5.95;;;;;;;;;;5020242;28;20156;-67
2023/08/22 03:28:28;;;;;;;12.05;6.50;;;;;;;;;;5020575;28;20096;-67
2023/08/22 03:30:58;;;;;;;17.63;7.22;;;;;;;;;;5017684;28;20053;-67
2023/08/22 03:33:26;;;;;;;15.20;7.20;;;;;;;;;;4998705;28;20046;-67
2023/08/22 03:35:54;;;;;;;12.00;6.55;;;;;;;;;;5006262;28;20030;-67
2023/08/22 03:38:19;;;;;;;18.95;6.78;;;;;;;;;;5007978;28;20029;-67
2023/08/22 03:40:44;;;;;;;12.25;6.15;;;;;;;;;;5007384;28;20037;-68
2023/08/22 03:43:10;;;;;;;15.00;7.40;;;;;;;;;;5007172;28;20034;-67
2023/08/22 03:45:35;;;;;;;11.35;6.50;;;;;;;;;;5007427;28;20030;-67
2023/08/22 03:48:04;;;;;;;11.27;6.10;;;;;;;;;;5006660;28;20447;-67
2023/08/22 03:50:33;;;;;;;10.65;6.43;;;;;;;;;;4978140;28;20078;-67
2023/08/22 03:52:58;;;;;;;11.68;6.00;;;;;;;;;;5006418;28;20034;-67
2023/08/22 03:55:24;;;;;;;13.13;6.82;;;;;;;;;;5006869;28;20415;-67
2023/08/22 03:57:49;;;;;;;13.07;6.30;;;;;;;;;;5007326;28;20119;-68
2023/08/22 04:00:15;;;;;;;12.93;6.03;;;;;;;;;;5007117;28;20037;-67
2023/08/22 04:02:40;;;;;;;14.13;6.68;;;;;;;;;;5005092;28;20033;-67
2023/08/22 04:05:06;;;;;;;9.63;5.95;;;;;;;;;;5006825;28;20415;-67
2023/08/22 04:07:32;;;;;;;12.32;6.45;;;;;;;;;;5003342;28;20044;-69
2023/08/22 04:09:57;;;;;;;11.50;6.47;;;;;;;;;;5026694;28;20058;-69
2023/08/22 04:12:22;;;;;;;11.85;5.72;;;;;;;;;;5026407;28;20045;-68
2023/08/22 04:14:48;;;;;;;15.27;6.45;;;;;;;;;;5026640;28;20033;-68
2023/08/22 04:17:13;;;;;;;18.30;6.97;;;;;;;;;;5026801;28;20040;-68
2023/08/22 04:19:38;;;;;;;16.30;7.30;;;;;;;;;;5026197;28;20030;-69
2023/08/22 04:22:04;;;;;;;13.23;6.70;;;;;;;;;;5025973;28;20671;-69
2023/08/22 04:24:30;;;;;;;15.15;6.60;;;;;;;;;;5025851;28;20512;-68
2023/08/22 04:26:55;;;;;;;18.63;7.10;;;;;;;;;;5005018;28;20018;-68
2023/08/22 04:29:21;;;;;;;10.95;6.45;;;;;;;;;;5017295;28;20022;-68
2023/08/22 04:31:46;;;;;;;14.35;6.80;;;;;;;;;;5023400;28;20048;-68
2023/08/22 04:34:11;;;;;;;12.73;7.57;;;;;;;;;;5025867;28;20041;-68
2023/08/22 04:36:37;;;;;;;14.35;6.38;;;;;;;;;;5026282;28;20036;-68
2023/08/22 04:39:02;;;;;;;14.82;7.22;;;;;;;;;;5024135;28;20025;-68
2023/08/22 04:41:28;;;;;;;14.30;7.20;;;;;;;;;;4989396;28;20092;-67
2023/08/22 04:43:53;;;;;;;12.25;6.57;;;;;;;;;;5005664;28;20549;-67
2023/08/22 04:46:19;;;;;;;12.55;6.53;;;;;;;;;;5011792;28;20762;-68
2023/08/22 04:48:45;;;;;;;12.00;6.70;;;;;;;;;;5002763;28;20035;-67
2023/08/22 04:51:10;;;;;;;13.07;6.22;;;;;;;;;;5000173;28;20121;-68
2023/08/22 04:53:35;;;;;;;12.05;7.30;;;;;;;;;;5006271;28;20087;-68
2023/08/22 04:56:01;;;;;;;14.10;6.82;;;;;;;;;;5005786;28;20034;-68
2023/08/22 04:58:26;;;;;;;13.32;6.97;;;;;;;;;;5005839;28;20546;-68
2023/08/22 05:00:51;;;;;;;16.20;7.20;;;;;;;;;;5006133;28;20776;-68
2023/08/22 05:03:19;;;;;;;12.63;6.72;;;;;;;;;;5005426;28;20034;-68
2023/08/22 05:05:45;;;;;;;15.45;7.30;;;;;;;;;;5005578;28;20561;-68
2023/08/22 05:08:10;;;;;;;15.95;7.63;;;;;;;;;;5005846;28;20038;-68
2023/08/22 05:10:35;;;;;;;12.50;7.45;;;;;;;;;;5005518;28;20037;-68
2023/08/22 05:13:01;;;;;;;15.20;7.20;;;;;;;;;;5005549;28;20029;-68
2023/08/22 05:15:26;;;;;;;14.48;6.68;;;;;;;;;;5005797;28;20053;-68
2023/08/22 05:17:51;;;;;;;12.18;6.70;;;;;;;;;;5005607;28;20932;-68
2023/08/22 05:20:17;;;;;;;13.02;6.78;;;;;;;;;;5005695;28;20038;-68
2023/08/22 05:22:42;;;;;;;11.50;5.90;;;;;;;;;;5005232;28;20087;-68
2023/08/22 05:25:08;;;;;;;15.40;6.47;;;;;;;;;;5004473;28;20037;-67
2023/08/22 05:27:34;;;;;;;11.10;6.20;;;;;;;;;;5005377;28;20042;-67
2023/08/22 05:29:59;;;;;;;12.55;6.97;;;;;;;;;;5005039;28;20053;-68
2023/08/22 05:32:25;;;;;;;12.13;6.43;;;;;;;;;;5005427;28;20026;-68
2023/08/22 05:34:50;;;;;;;12.88;7.50;;;;;;;;;;5004983;28;20415;-68
2023/08/22 05:37:15;;;;;;;10.98;6.20;;;;;;;;;;5004913;28;20045;-68
2023/08/22 05:39:41;;;;;;;14.05;6.95;;;;;;;;;;5005273;28;20103;-68
2023/08/22 05:42:06;;;;;;;16.05;6.85;;;;;;;;;;5005201;28;20062;-68
2023/08/22 05:44:32;;;;;;;12.25;6.72;;;;;;;;;;5005023;28;20818;-67
2023/08/22 05:46:58;;;;;;;15.80;6.75;;;;;;;;;;5022828;28;20034;-68
2023/08/22 05:49:24;;;;;;;12.40;6.57;;;;;;;;;;5022906;28;20056;-67
2023/08/22 05:51:49;;;;;;;16.48;8.10;;;;;;;;;;5024858;28;20576;-67
2023/08/22 05:54:14;;;;;;;18.15;9.02;;;;;;;;;;5023329;28;20109;-67
2023/08/22 05:56:40;;;;;;;17.38;9.13;;;;;;;;;;5024810;28;20029;-68
2023/08/22 05:59:05;;;;;;;14.27;7.85;;;;;;;;;;5025165;28;20659;-68
2023/08/22 06:01:30;;;;;;;14.10;7.65;;;;;;;;;;5018641;28;20178;-68
2023/08/22 06:03:56;;;;;;;27.92;13.70;;;;;;;;;;5024969;28;20029;-68
2023/08/22 06:06:21;;;;;;;73.18;35.50;;;;;;;;;;5003796;28;20065;-68
2023/08/22 06:08:47;;;;;;;66.63;35.17;;;;;;;;;;5018611;28;20409;-67
2023/08/22 06:11:12;;;;;;;54.20;28.13;;;;;;;;;;5028901;28;20021;-68
2023/08/22 06:13:37;;;;;;;24.33;13.27;;;;;;;;;;5030870;28;20099;-68
2023/08/22 06:16:03;;;;;;;19.83;9.73;;;;;;;;;;5027343;28;20473;-68
2023/08/22 06:18:28;;;;;;;18.00;9.55;;;;;;;;;;5028927;28;20052;-68
2023/08/22 06:21:00;;;;;;;21.60;10.18;;;;;;;;;;5023423;28;20477;-68
2023/08/22 06:23:26;;;;;;;26.52;13.43;;;;;;;;;;5005161;28;20030;-68
2023/08/22 06:25:51;;;;;;;19.15;10.73;;;;;;;;;;5000875;28;20040;-67
2023/08/22 06:28:17;;;;;;;22.35;11.07;;;;;;;;;;4990904;28;20396;-68
2023/08/22 06:30:42;;;;;;;23.90;11.20;;;;;;;;;;5012187;28;20052;-68
2023/08/22 06:33:07;;;;;;;22.25;10.63;;;;;;;;;;5027606;28;20041;-68
2023/08/22 06:35:33;;;;;;;19.42;10.10;;;;;;;;;;5009072;28;20029;-68
2023/08/22 06:37:58;;;;;;;24.77;11.02;;;;;;;;;;5026645;28;20116;-68
2023/08/22 06:40:24;;;;;;;22.08;11.27;;;;;;;;;;5025784;28;20053;-68
2023/08/22 06:42:49;;;;;;;20.20;10.35;;;;;;;;;;5022670;28;20571;-68
2023/08/22 06:45:15;;;;;;;20.27;11.60;;;;;;;;;;5006443;28;20104;-69
2023/08/22 06:47:40;;;;;;;24.50;11.52;;;;;;;;;;5008211;28;20041;-68
2023/08/22 06:50:07;;;;;;;21.73;11.80;;;;;;;;;;5004920;28;20038;-68
2023/08/22 06:52:32;;;;;;;26.15;12.18;;;;;;;;;;5027036;28;20156;-68
2023/08/22 06:54:58;;;;;;;26.80;12.88;;;;;;;;;;5027223;28;20578;-69
2023/08/22 06:57:23;;;;;;;31.42;12.85;;;;;;;;;;5027607;28;20037;-69
2023/08/22 06:59:49;;;;;;;26.17;13.00;;;;;;;;;;5026340;28;20033;-68
2023/08/22 07:02:15;;;;;;;29.58;13.35;;;;;;;;;;5027695;28;20037;-68
2023/08/22 07:04:40;;;;;;;29.38;14.15;;;;;;;;;;5026927;28;20534;-68
2023/08/22 07:07:06;;;;;;;32.10;14.68;;;;;;;;;;5027139;28;20068;-69
2023/08/22 07:09:31;;;;;;;28.42;14.55;;;;;;;;;;5026868;28;20751;-68
2023/08/22 07:11:56;;;;;;;33.47;15.85;;;;;;;;;;5027087;28;20021;-69
2023/08/22 07:14:22;;;;;;;30.17;15.15;;;;;;;;;;5027594;28;20029;-68
2023/08/22 07:16:47;;;;;;;27.58;14.88;;;;;;;;;;5027171;28;20911;-69
2023/08/22 07:19:12;;;;;;;31.15;14.52;;;;;;;;;;5026854;28;20128;-69
2023/08/22 07:21:38;;;;;;;26.63;14.52;;;;;;;;;;5026297;28;20047;-69
2023/08/22 07:24:04;;;;;;;30.13;13.68;;;;;;;;;;5026688;28;20394;-69
2023/08/22 07:26:30;;;;;;;33.28;14.80;;;;;;;;;;5026346;28;20096;-68
2023/08/22 07:28:55;;;;;;;29.83;14.20;;;;;;;;;;5026479;28;20124;-68
2023/08/22 07:31:20;;;;;;;29.30;14.32;;;;;;;;;;5026204;28;20582;-69
2023/08/22 07:33:46;;;;;;;25.60;13.68;;;;;;;;;;5027307;28;20741;-68
2023/08/22 07:36:21;;;;;;;26.83;14.65;;;;;;;;;;5006506;28;20048;-68
2023/08/22 07:38:47;;;;;;;40.47;15.85;;;;;;;;;;5011051;28;20077;-68
2023/08/22 07:41:12;;;;;;;30.83;15.50;;;;;;;;;;5013035;28;20025;-69
2023/08/22 07:43:38;;;;;;;35.70;14.82;;;;;;;;;;5014790;28;20041;-69
2023/08/22 07:46:03;;;;;;;35.22;15.52;;;;;;;;;;5020138;28;20041;-69
2023/08/22 07:48:29;;;;;;;30.35;15.85;;;;;;;;;;5018104;28;20057;-69
2023/08/22 07:50:55;;;;;;;36.70;15.88;;;;;;;;;;5018178;28;20018;-68
2023/08/22 07:53:21;;;;;;;29.77;14.48;;;;;;;;;;5026361;28;20028;-69
2023/08/22 07:55:47;;;;;;;41.78;15.88;;;;;;;;;;5009289;28;20124;-69
2023/08/22 07:58:13;;;;;;;31.48;14.50;;;;;;;;;;5006784;28;20038;-69
2023/08/22 08:00:38;;;;;;;31.70;14.82;;;;;;;;;;5002167;28;20065;-69
2023/08/22 08:03:04;;;;;;;28.05;15.10;;;;;;;;;;5006087;28;20407;-68
2023/08/22 08:05:29;;;;;;;31.00;14.45;;;;;;;;;;5007041;28;20021;-68
2023/08/22 08:07:55;;;;;;;30.15;15.18;;;;;;;;;;5005291;28;20120;-69
2023/08/22 08:10:20;;;;;;;29.80;14.68;;;;;;;;;;5005354;28;20038;-69
2023/08/22 08:12:46;;;;;;;29.52;15.02;;;;;;;;;;4988238;28;20096;-68
2023/08/22 08:15:11;;;;;;;30.35;15.18;;;;;;;;;;5006560;28;20034;-69
2023/08/22 08:17:37;;;;;;;29.55;14.32;;;;;;;;;;5006462;28;20418;-69
2023/08/22 08:20:04;;;;;;;33.63;15.20;;;;;;;;;;5006234;28;20460;-69
2023/08/22 08:22:30;;;;;;;27.30;14.23;;;;;;;;;;5005170;28;20063;-69
2023/08/22 08:24:55;;;;;;;26.45;13.63;;;;;;;;;;5005646;28;20600;-69
2023/08/22 08:27:21;;;;;;;25.65;11.82;;;;;;;;;;4987420;28;20034;-69
2023/08/22 08:29:46;;;;;;;24.13;12.15;;;;;;;;;;5006275;28;20529;-69
2023/08/22 08:32:12;;;;;;;26.67;12.38;;;;;;;;;;5005710;28;20033;-69
2023/08/22 08:34:37;;;;;;;22.52;10.85;;;;;;;;;;5005676;28;20034;-69
2023/08/22 08:37:04;;;;;;;17.75;9.32;;;;;;;;;;5005984;28;20223;-68
2023/08/22 08:39:29;;;;;;;16.25;7.55;;;;;;;;;;5003247;28;20093;-69
2023/08/22 08:42:04;;;;;;;14.40;6.95;;;;;;;;;;4987355;28;20037;-69
2023/08/22 08:44:33;;;;;;;17.30;6.18;;;;;;;;;;4999420;28;20061;-69
2023/08/22 08:46:59;;;;;;;13.52;6.97;;;;;;;;;;4996603;28;20045;-68
2023/08/22 08:49:25;;;;;;;14.85;6.07;;;;;;;;;;5005816;28;20040;-69
2023/08/22 08:51:51;;;;;;;17.08;5.43;;;;;;;;;;5005510;28;20042;-68
2023/08/22 08:54:18;;;;;;;10.15;4.47;;;;;;;;;;5008665;28;20061;-68
2023/08/22 08:56:44;;;;;;;10.70;4.43;;;;;;;;;;5005948;28;20533;-68
2023/08/22 08:59:09;;;;;;;10.90;5.22;;;;;;;;;;5003619;28;20045;-67
2023/08/22 09:01:36;;;;;;;8.50;3.00;;;;;;;;;;4998071;28;20724;-68
2023/08/22 09:04:02;;;;;;;5.82;2.30;;;;;;;;;;5012231;28;20594;-69
2023/08/22 09:06:27;;;;;;;7.90;2.70;;;;;;;;;;5012354;28;20045;-69
2023/08/22 09:09:08;;;;;;;6.97;3.13;;;;;;;;;;5027049;28;20033;-69
2023/08/22 09:11:34;;;;;;;9.32;3.45;;;;;;;;;;5024087;28;20026;-69
2023/08/22 09:14:00;;;;;;;7.55;2.83;;;;;;;;;;5024748;28;20037;-69
2023/08/22 09:16:26;;;;;;;5.45;2.63;;;;;;;;;;5024520;28;20109;-69
2023/08/22 09:18:57;;;;;;;7.40;2.75;;;;;;;;;;5024017;28;20038;-69
2023/08/22 09:21:22;;;;;;;11.38;3.20;;;;;;;;;;5024306;28;20045;-69
2023/08/22 09:23:49;;;;;;;4.95;2.53;;;;;;;;;;5024581;28;20029;-69
2023/08/22 09:26:20;;;;;;;6.53;2.25;;;;;;;;;;5024304;28;20017;-69
2023/08/22 09:28:46;;;;;;;9.23;2.60;;;;;;;;;;5024579;28;20041;-69
2023/08/22 09:31:23;;;;;;;8.50;2.30;;;;;;;;;;5023828;28;20046;-69
2023/08/22 09:33:49;;;;;;;7.65;2.25;;;;;;;;;;5011923;28;20190;-69
2023/08/22 09:36:22;;;;;;;4.15;1.90;;;;;;;;;;5020830;28;20129;-69
2023/08/22 09:38:55;;;;;;;2.72;1.60;;;;;;;;;;5004882;28;20057;-68
2023/08/22 09:41:22;;;;;;;;;;;;;;;;;;5004789;28;20033;-69
2023/08/22 09:43:51;;;;;;;3.85;1.50;;;;;;;;;;5005100;28;20012;-69
2023/08/22 09:46:19;;;;;;;4.38;1.33;;;;;;;;;;5004564;28;20076;-69
2023/08/22 09:48:45;;;;;;;3.65;1.45;;;;;;;;;;4998251;28;20116;-69
2023/08/22 09:51:12;;;;;;;5.57;1.77;;;;;;;;;;4997534;28;20128;-70
2023/08/22 09:53:37;;;;;;;4.00;1.98;;;;;;;;;;5004616;28;20030;-70
2023/08/22 09:56:03;;;;;;;4.32;2.08;;;;;;;;;;5004759;28;20056;-70
2023/08/22 09:58:29;;;;;;;4.22;2.42;;;;;;;;;;5004382;28;20530;-70
2023/08/22 10:00:55;;;;;;;6.95;2.33;;;;;;;;;;5004173;28;20042;-69
2023/08/22 10:03:23;;;;;;;4.82;2.13;;;;;;;;;;4995297;28;20107;-69
2023/08/22 10:05:51;;;;;;;5.80;1.73;;;;;;;;;;4995436;28;20644;-69
2023/08/22 10:08:16;;;;;;;2.70;1.25;;;;;;;;;;4998044;28;20081;-69
2023/08/22 10:10:43;;;;;;;3.85;1.40;;;;;;;;;;5003399;28;20042;-69
2023/08/22 10:13:09;;;;;;;2.35;1.52;;;;;;;;;;5004177;28;20050;-69
2023/08/22 10:15:36;;;;;;;3.38;1.50;;;;;;;;;;5004254;28;20049;-69
2023/08/22 10:18:02;;;;;;;3.03;1.30;;;;;;;;;;4983174;28;20152;-69
2023/08/22 10:20:28;;;;;;;4.05;1.77;;;;;;;;;;5001832;28;20034;-69
2023/08/22 10:22:53;;;;;;;3.47;1.50;;;;;;;;;;5004120;28;20038;-69
2023/08/22 10:25:19;;;;;;;2.33;1.50;;;;;;;;;;4987076;28;20037;-69
2023/08/22 10:27:48;;;;;;;3.67;1.60;;;;;;;;;;5005564;28;20084;-69
2023/08/22 10:30:14;;;;;;;4.30;1.70;;;;;;;;;;5006225;28;20049;-69
2023/08/22 10:32:40;;;;;;;4.05;1.45;;;;;;;;;;5010238;28;20511;-69
2023/08/22 10:35:18;;;;;;;4.70;1.60;;;;;;;;;;5003792;28;20411;-68
2023/08/22 10:37:48;;;;;;;3.88;1.60;;;;;;;;;;5001672;28;20046;-69
2023/08/22 10:40:24;;;;;;;4.18;1.85;;;;;;;;;;5004887;28;20038;-69
2023/08/22 10:42:52;;;;;;;3.17;1.40;;;;;;;;;;5004323;28;20029;-69
2023/08/22 10:45:18;;;;;;;3.72;1.48;;;;;;;;;;5004053;28;20360;-69
2023/08/22 10:47:49;;;;;;;4.22;1.25;;;;;;;;;;5003489;28;20042;-69
2023/08/22 10:50:15;;;;;;;5.93;1.83;;;;;;;;;;5022287;28;20141;-69
2023/08/22 10:52:41;;;;;;;3.03;1.40;;;;;;;;;;5003707;28;20590;-69
2023/08/22 10:55:11;;;;;;;1.77;1.00;;;;;;;;;;5020662;28;20079;-69
2023/08/22 10:57:46;;;;;;;2.85;1.20;;;;;;;;;;5019599;28;20040;-69
2023/08/22 11:00:18;;;;;;;3.60;1.33;;;;;;;;;;5018714;28;20042;-69
2023/08/22 11:02:44;;;;;;;4.20;2.08;;;;;;;;;;5020871;28;20065;-69
2023/08/22 11:05:11;;;;;;;3.95;1.48;;;;;;;;;;5001720;28;20055;-69
2023/08/22 11:07:42;;;;;;;3.58;1.75;;;;;;;;;;4984672;28;20040;-69
2023/08/22 11:10:11;;;;;;;4.60;1.70;;;;;;;;;;5005704;28;20037;-69
2023/08/22 11:12:36;;;;;;;3.90;1.30;;;;;;;;;;5005156;28;20073;-69
2023/08/22 11:15:02;;;;;;;3.22;1.50;;;;;;;;;;5007534;28;20113;-69
2023/08/22 11:17:28;;;;;;;4.80;1.60;;;;;;;;;;5006095;28;20030;-69
2023/08/22 11:19:55;;;;;;;6.07;1.52;;;;;;;;;;5005975;28;20113;-69
2023/08/22 11:22:21;;;;;;;4.68;1.80;;;;;;;;;;5006877;28;20038;-69
2023/08/22 11:24:49;;;;;;;5.13;1.83;;;;;;;;;;5007012;28;20048;-69
2023/08/22 11:27:16;;;;;;;4.55;1.60;;;;;;;;;;5006860;28;20038;-69
2023/08/22 11:29:44;;;;;;;5.65;1.48;;;;;;;;;;5007410;28;20128;-69
2023/08/22 11:32:25;;;;;;;4.05;1.70;;;;;;;;;;4986113;28;20419;-69
2023/08/22 11:34:55;;;;;;;2.95;1.88;;;;;;;;;;4987742;28;20038;-69
2023/08/22 11:37:21;;;;;;;4.68;1.58;;;;;;;;;;4986741;28;20531;-69
2023/08/22 11:39:48;;;;;;;5.53;1.50;;;;;;;;;;4987086;28;20180;-69
2023/08/22 11:42:18;;;;;;;3.97;1.80;;;;;;;;;;4987052;28;20178;-69
2023/08/22 11:45:08;;;;;;;4.95;1.90;;;;;;;;;;4970127;28;20038;-69
2023/08/22 11:47:41;;;;;;;4.50;2.15;;;;;;;;;;4982981;28;20145;-69
2023/08/22 11:50:12;;;;;;;2.45;1.65;;;;;;;;;;4993458;28;20034;-69
2023/08/22 11:52:40;;;;;;;4.68;2.17;;;;;;;;;;5007069;28;20064;-69
2023/08/22 11:55:07;;;;;;;3.10;1.67;;;;;;;;;;4996048;28;20480;-69
2023/08/22 11:57:34;;;;;;;5.53;1.90;;;;;;;;;;4991787;28;20042;-68
2023/08/22 12:00:09;;;;;;;3.17;1.70;;;;;;;;;;5006155;28;20084;-69
2023/08/22 12:02:35;;;;;;;2.35;1.38;;;;;;;;;;5003926;28;20037;-69
2023/08/22 12:05:02;;;;;;;3.70;1.90;;;;;;;;;;4997737;28;20508;-69
2023/08/22 12:07:27;;;;;;;3.25;1.90;;;;;;;;;;4999445;28;20038;-69
2023/08/22 12:10:00;;;;;;;6.03;1.88;;;;;;;;;;4995916;28;20040;-69
2023/08/22 12:12:26;;;;;;;3.83;1.90;;;;;;;;;;5005512;28;20128;-69
2023/08/22 12:14:51;;;;;;;2.95;1.95;;;;;;;;;;5004206;28;20116;-69
2023/08/22 12:17:17;;;;;;;2.88;1.75;;;;;;;;;;5001434;28;20036;-69
2023/08/22 12:19:43;;;;;;;4.30;1.70;;;;;;;;;;4995997;28;20708;-69
2023/08/22 12:22:09;;;;;;;6.03;2.50;;;;;;;;;;4999339;28;20124;-69
2023/08/22 12:24:34;;;;;;;7.18;2.45;;;;;;;;;;4996626;28;20061;-69
2023/08/22 12:26:59;;;;;;;4.50;2.80;;;;;;;;;;4992386;28;20659;-69
2023/08/22 12:29:25;;;;;;;4.28;2.40;;;;;;;;;;4995394;28;20030;-69
2023/08/22 12:31:50;;;;;;;4.70;2.40;;;;;;;;;;5005318;28;20458;-69
2023/08/22 12:34:15;;;;;;;4.00;1.98;;;;;;;;;;5004029;28;20414;-69
2023/08/22 12:36:41;;;;;;;5.82;2.10;;;;;;;;;;4986333;28;20088;-68
2023/08/22 12:39:10;;;;;;;3.67;1.70;;;;;;;;;;4976377;28;20066;-69
2023/08/22 12:41:36;;;;;;;3.88;2.30;;;;;;;;;;5000563;28;20057;-72
2023/08/22 12:44:01;;;;;;;3.60;1.65;;;;;;;;;;4986128;28;20041;-69
2023/08/22 12:46:27;;;;;;;5.43;1.95;;;;;;;;;;5004007;28;20505;-69
2023/08/22 12:48:52;;;;;;;4.15;1.90;;;;;;;;;;4992537;28;20041;-69
2023/08/22 12:51:17;;;;;;;7.65;2.40;;;;;;;;;;4999769;28;20045;-68
2023/08/22 12:53:43;;;;;;;6.85;2.10;;;;;;;;;;4990487;28;20458;-68
2023/08/22 12:56:08;;;;;;;4.85;2.20;;;;;;;;;;4999759;28;20137;-68
2023/08/22 12:58:34;;;;;;;8.35;2.20;;;;;;;;;;4987130;28;20038;-69
2023/08/22 13:01:00;;;;;;;3.53;2.38;;;;;;;;;;5004933;28;20037;-68
2023/08/22 13:03:25;;;;;;;8.27;2.50;;;;;;;;;;5004763;28;20036;-69
2023/08/22 13:05:50;;;;;;;7.38;2.65;;;;;;;;;;5004868;28;20308;-69
2023/08/22 13:08:16;;;;;;;6.90;2.25;;;;;;;;;;5005437;28;20060;-68
2023/08/22 13:10:41;;;;;;;6.72;2.35;;;;;;;;;;5005018;28;20038;-69
2023/08/22 13:13:07;;;;;;;5.03;2.08;;;;;;;;;;4998980;28;20038;-68
2023/08/22 13:15:32;;;;;;;4.68;2.35;;;;;;;;;;5000656;28;20121;-69
2023/08/22 13:17:57;;;;;;;7.70;2.40;;;;;;;;;;5004698;28;20079;-68
2023/08/22 13:20:24;;;;;;;6.70;2.40;;;;;;;;;;5005410;28;20049;-69
2023/08/22 13:22:50;;;;;;;6.50;2.70;;;;;;;;;;5006611;28;20041;-69
2023/08/22 13:25:16;;;;;;;5.30;2.50;;;;;;;;;;5008081;28;20153;-70
2023/08/22 13:27:42;;;;;;;5.78;2.50;;;;;;;;;;5009503;28;20084;-70
2023/08/22 13:30:08;;;;;;;8.82;2.67;;;;;;;;;;5005294;28;20053;-70
2023/08/22 13:32:33;;;;;;;7.10;2.50;;;;;;;;;;5004584;28;20037;-70
2023/08/22 13:34:59;;;;;;;5.18;2.28;;;;;;;;;;5004656;28;20462;-69
2023/08/22 13:37:30;;;;;;;4.82;2.05;;;;;;;;;;4997929;28;20042;-68
2023/08/22 13:39:56;;;;;;;5.32;2.08;;;;;;;;;;5003276;28;20042;-70
2023/08/22 13:42:21;;;;;;;3.72;2.10;;;;;;;;;;4998139;28;20056;-69
2023/08/22 13:44:47;;;;;;;5.88;2.20;;;;;;;;;;5004545;28;20033;-69
2023/08/22 13:47:12;;;;;;;4.85;2.22;;;;;;;;;;4998493;28;20139;-69
2023/08/22 13:49:38;;;;;;;5.18;1.55;;;;;;;;;;5003431;28;20093;-70
2023/08/22 13:52:04;;;;;;;4.72;2.20;;;;;;;;;;5004284;28;20038;-70
2023/08/22 13:54:29;;;;;;;3.70;1.60;;;;;;;;;;5006502;28;20033;-70
2023/08/22 13:56:55;;;;;;;5.63;1.80;;;;;;;;;;5005267;28;20049;-68
2023/08/22 13:59:20;;;;;;;4.28;1.70;;;;;;;;;;5003623;28;20525;-68
2023/08/22 14:01:47;;;;;;;4.35;1.70;;;;;;;;;;5004066;28;20076;-69
2023/08/22 14:04:15;;;;;;;4.07;1.85;;;;;;;;;;5003874;28;20065;-70
2023/08/22 14:06:41;;;;;;;4.55;1.73;;;;;;;;;;5004537;28;20511;-69
2023/08/22 14:09:07;;;;;;;5.22;2.17;;;;;;;;;;4986509;28;20071;-67
2023/08/22 14:11:33;;;;;;;5.78;1.70;;;;;;;;;;5004809;28;20021;-69
2023/08/22 14:13:58;;;;;;;3.55;1.75;;;;;;;;;;4999964;28;20041;-69
2023/08/22 14:16:23;;;;;;;6.30;2.00;;;;;;;;;;5014122;28;20048;-72
2023/08/22 14:18:49;;;;;;;4.22;1.70;;;;;;;;;;4988238;28;20095;-69
2023/08/22 14:21:14;;;;;;;7.90;2.10;;;;;;;;;;5005459;28;20038;-69
2023/08/22 14:23:40;;;;;;;3.90;2.17;;;;;;;;;;5002460;28;20084;-70
2023/08/22 14:26:05;;;;;;;2.70;1.50;;;;;;;;;;5003451;28;20584;-69
2023/08/22 14:28:31;;;;;;;8.73;1.83;;;;;;;;;;5004841;28;20087;-69